sensor_id;sensor_type;location;lat;lon;timestamp;P1;durP1;ratioP1;P2;durP2;ratioP2
9310;SDS011;4694;52.464;13.480;2022-09-12T00:02:13;7.45;;;5.38;;
9310;SDS011;4694;52.464;13.480;2022-09-12T00:04:41;8.98;;;6.20;;
9310;SDS011;4694;52.464;13.480;2022-09-12T00:07:08;9.23;;;5.82;;
9310;SDS011;4694;52.464;13.480;2022-09-12T00:09:35;7.95;;;5.45;;
9310;SDS011;4694;52.464;13.480;2022-09-12T00:12:02;7.85;;;5.68;;
9310;SDS011;4694;52.464;13.480;2022-09-12T00:14:29;6.25;;;5.25;;
9310;SDS011;4694;52.464;13.480;2022-09-12T00:16:56;8.10;;;5.65;;
9310;SDS011;4694;52.464;13.480;2022-09-12T00:19:23;8.82;;;4.80;;
9310;SDS011;4694;52.464;13.480;2022-09-12T00:21:51;6.50;;;5.15;;
9310;SDS011;4694;52.464;13.480;2022-09-12T00:24:18;8.55;;;5.88;;
9310;SDS011;4694;52.464;13.480;2022-09-12T00:26:45;6.68;;;4.93;;
9310;SDS011;4694;52.464;13.480;2022-09-12T00:29:13;6.93;;;5.78;;
9310;SDS011;4694;52.464;13.480;2022-09-12T00:31:41;9.55;;;5.63;;
9310;SDS011;4694;52.464;13.480;2022-09-12T00:34:08;6.47;;;5.47;;
9310;SDS011;4694;52.464;13.480;2022-09-12T00:36:35;9.07;;;5.72;;
9310;SDS011;4694;52.464;13.480;2022-09-12T00:39:03;8.10;;;5.78;;
9310;SDS011;4694;52.464;13.480;2022-09-12T00:41:32;6.65;;;5.38;;
9310;SDS011;4694;52.464;13.480;2022-09-12T00:44:00;9.70;;;6.00;;
9310;SDS011;4694;52.464;13.480;2022-09-12T00:46:31;8.93;;;6.18;;
9310;SDS011;4694;52.464;13.480;2022-09-12T00:49:02;7.15;;;4.95;;
9310;SDS011;4694;52.464;13.480;2022-09-12T00:51:34;7.82;;;5.90;;
9310;SDS011;4694;52.464;13.480;2022-09-12T00:54:04;9.63;;;5.10;;
9310;SDS011;4694;52.464;13.480;2022-09-12T00:56:35;7.95;;;5.38;;
9310;SDS011;4694;52.464;13.480;2022-09-12T00:59:06;7.93;;;4.80;;
9310;SDS011;4694;52.464;13.480;2022-09-12T01:01:37;6.50;;;5.32;;
9310;SDS011;4694;52.464;13.480;2022-09-12T01:04:08;6.23;;;4.90;;
9310;SDS011;4694;52.464;13.480;2022-09-12T01:06:38;8.95;;;5.50;;
9310;SDS011;4694;52.464;13.480;2022-09-12T01:09:08;5.68;;;5.07;;
9310;SDS011;4694;52.464;13.480;2022-09-12T01:11:39;7.07;;;5.47;;
9310;SDS011;4694;52.464;13.480;2022-09-12T01:14:06;6.85;;;4.57;;
9310;SDS011;4694;52.464;13.480;2022-09-12T01:16:34;8.00;;;5.93;;
9310;SDS011;4694;52.464;13.480;2022-09-12T01:19:05;5.22;;;4.15;;
9310;SDS011;4694;52.464;13.480;2022-09-12T01:21:45;5.00;;;4.07;;
9310;SDS011;4694;52.464;13.480;2022-09-12T01:24:29;6.45;;;5.75;;
9310;SDS011;4694;52.464;13.480;2022-09-12T01:32:57;5.55;;;4.45;;
9310;SDS011;4694;52.464;13.480;2022-09-12T01:35:33;6.68;;;4.25;;
9310;SDS011;4694;52.464;13.480;2022-09-12T01:38:08;3.97;;;3.67;;
9310;SDS011;4694;52.464;13.480;2022-09-12T01:40:44;4.97;;;4.03;;
9310;SDS011;4694;52.464;13.480;2022-09-12T01:43:18;6.72;;;4.20;;
9310;SDS011;4694;52.464;13.480;2022-09-12T01:45:52;5.82;;;4.32;;
9310;SDS011;4694;52.464;13.480;2022-09-12T01:48:25;6.10;;;4.28;;
9310;SDS011;4694;52.464;13.480;2022-09-12T01:50:57;6.70;;;4.18;;
9310;SDS011;4694;52.464;13.480;2022-09-12T01:53:30;5.07;;;4.15;;
9310;SDS011;4694;52.464;13.480;2022-09-12T01:56:02;5.65;;;4.47;;
9310;SDS011;4694;52.464;13.480;2022-09-12T01:58:34;5.55;;;3.83;;
9310;SDS011;4694;52.464;13.480;2022-09-12T02:01:05;5.97;;;4.90;;
9310;SDS011;4694;52.464;13.480;2022-09-12T02:03:38;7.45;;;4.80;;
9310;SDS011;4694;52.464;13.480;2022-09-12T02:06:11;6.07;;;4.55;;
9310;SDS011;4694;52.464;13.480;2022-09-12T02:08:44;9.82;;;5.13;;
9310;SDS011;4694;52.464;13.480;2022-09-12T02:11:13;5.13;;;3.97;;
9310;SDS011;4694;52.464;13.480;2022-09-12T02:13:40;6.32;;;4.70;;
9310;SDS011;4694;52.464;13.480;2022-09-12T02:16:09;6.82;;;4.88;;
9310;SDS011;4694;52.464;13.480;2022-09-12T02:18:43;5.82;;;4.82;;
9310;SDS011;4694;52.464;13.480;2022-09-12T02:21:12;6.93;;;5.15;;
9310;SDS011;4694;52.464;13.480;2022-09-12T02:23:40;7.80;;;5.15;;
9310;SDS011;4694;52.464;13.480;2022-09-12T02:26:12;8.18;;;5.00;;
9310;SDS011;4694;52.464;13.480;2022-09-12T02:28:44;6.85;;;5.32;;
9310;SDS011;4694;52.464;13.480;2022-09-12T02:31:12;6.93;;;4.90;;
9310;SDS011;4694;52.464;13.480;2022-09-12T02:33:47;7.45;;;5.07;;
9310;SDS011;4694;52.464;13.480;2022-09-12T02:36:24;7.47;;;4.35;;
9310;SDS011;4694;52.464;13.480;2022-09-12T02:38:58;5.85;;;4.80;;
9310;SDS011;4694;52.464;13.480;2022-09-12T02:41:25;7.72;;;5.30;;
9310;SDS011;4694;52.464;13.480;2022-09-12T02:43:52;10.15;;;5.35;;
9310;SDS011;4694;52.464;13.480;2022-09-12T02:46:20;11.82;;;7.43;;
9310;SDS011;4694;52.464;13.480;2022-09-12T02:48:50;7.40;;;5.72;;
9310;SDS011;4694;52.464;13.480;2022-09-12T02:51:18;9.57;;;5.63;;
9310;SDS011;4694;52.464;13.480;2022-09-12T02:53:46;8.82;;;6.82;;
9310;SDS011;4694;52.464;13.480;2022-09-12T02:56:17;8.73;;;5.47;;
9310;SDS011;4694;52.464;13.480;2022-09-12T02:58:48;8.35;;;5.93;;
9310;SDS011;4694;52.464;13.480;2022-09-12T03:01:18;9.40;;;6.38;;
9310;SDS011;4694;52.464;13.480;2022-09-12T03:03:58;10.18;;;5.78;;
9310;SDS011;4694;52.464;13.480;2022-09-12T03:06:36;8.82;;;6.45;;
9310;SDS011;4694;52.464;13.480;2022-09-12T03:09:12;10.20;;;5.90;;
9310;SDS011;4694;52.464;13.480;2022-09-12T03:11:47;11.45;;;6.47;;
9310;SDS011;4694;52.464;13.480;2022-09-12T03:14:33;9.02;;;5.60;;
9310;SDS011;4694;52.464;13.480;2022-09-12T03:17:10;10.68;;;6.68;;
9310;SDS011;4694;52.464;13.480;2022-09-12T03:19:49;8.68;;;5.53;;
9310;SDS011;4694;52.464;13.480;2022-09-12T03:22:21;8.43;;;5.13;;
9310;SDS011;4694;52.464;13.480;2022-09-12T03:24:55;6.40;;;4.72;;
9310;SDS011;4694;52.464;13.480;2022-09-12T03:27:29;21.17;;;7.03;;
9310;SDS011;4694;52.464;13.480;2022-09-12T03:29:59;8.85;;;5.40;;
9310;SDS011;4694;52.464;13.480;2022-09-12T03:32:39;6.95;;;4.78;;
9310;SDS011;4694;52.464;13.480;2022-09-12T03:35:08;7.50;;;5.55;;
9310;SDS011;4694;52.464;13.480;2022-09-12T03:37:35;12.23;;;6.30;;
9310;SDS011;4694;52.464;13.480;2022-09-12T03:40:02;9.65;;;5.50;;
9310;SDS011;4694;52.464;13.480;2022-09-12T03:42:29;7.88;;;5.22;;
9310;SDS011;4694;52.464;13.480;2022-09-12T03:44:55;9.57;;;5.55;;
9310;SDS011;4694;52.464;13.480;2022-09-12T03:47:22;11.52;;;5.45;;
9310;SDS011;4694;52.464;13.480;2022-09-12T03:49:49;8.15;;;5.97;;
9310;SDS011;4694;52.464;13.480;2022-09-12T03:52:17;8.73;;;5.75;;
9310;SDS011;4694;52.464;13.480;2022-09-12T03:54:44;13.25;;;6.82;;
9310;SDS011;4694;52.464;13.480;2022-09-12T03:57:11;10.13;;;6.03;;
9310;SDS011;4694;52.464;13.480;2022-09-12T03:59:37;11.13;;;5.40;;
9310;SDS011;4694;52.464;13.480;2022-09-12T04:02:04;10.68;;;6.85;;
9310;SDS011;4694;52.464;13.480;2022-09-12T04:04:31;10.32;;;5.90;;
9310;SDS011;4694;52.464;13.480;2022-09-12T04:06:57;16.08;;;5.88;;
9310;SDS011;4694;52.464;13.480;2022-09-12T04:09:25;9.52;;;5.43;;
9310;SDS011;4694;52.464;13.480;2022-09-12T04:11:52;10.65;;;5.90;;
9310;SDS011;4694;52.464;13.480;2022-09-12T04:14:19;9.45;;;6.10;;
9310;SDS011;4694;52.464;13.480;2022-09-12T04:16:45;12.65;;;7.32;;
9310;SDS011;4694;52.464;13.480;2022-09-12T04:19:12;13.00;;;7.82;;
9310;SDS011;4694;52.464;13.480;2022-09-12T04:21:38;12.48;;;7.07;;
9310;SDS011;4694;52.464;13.480;2022-09-12T04:24:05;13.13;;;6.88;;
9310;SDS011;4694;52.464;13.480;2022-09-12T04:26:33;8.68;;;5.35;;
9310;SDS011;4694;52.464;13.480;2022-09-12T04:29:00;14.35;;;6.32;;
9310;SDS011;4694;52.464;13.480;2022-09-12T04:31:26;12.55;;;6.45;;
9310;SDS011;4694;52.464;13.480;2022-09-12T04:33:53;17.27;;;8.15;;
9310;SDS011;4694;52.464;13.480;2022-09-12T04:36:20;11.05;;;7.13;;
9310;SDS011;4694;52.464;13.480;2022-09-12T04:38:48;10.32;;;5.40;;
9310;SDS011;4694;52.464;13.480;2022-09-12T04:41:16;10.27;;;5.82;;
9310;SDS011;4694;52.464;13.480;2022-09-12T04:43:46;10.10;;;6.53;;
9310;SDS011;4694;52.464;13.480;2022-09-12T04:46:16;16.85;;;9.57;;
9310;SDS011;4694;52.464;13.480;2022-09-12T04:48:44;13.52;;;6.80;;
9310;SDS011;4694;52.464;13.480;2022-09-12T04:51:11;11.13;;;6.93;;
9310;SDS011;4694;52.464;13.480;2022-09-12T04:53:39;12.90;;;7.20;;
9310;SDS011;4694;52.464;13.480;2022-09-12T04:56:07;9.57;;;6.20;;
9310;SDS011;4694;52.464;13.480;2022-09-12T04:58:35;9.55;;;5.80;;
9310;SDS011;4694;52.464;13.480;2022-09-12T05:01:05;15.27;;;7.93;;
9310;SDS011;4694;52.464;13.480;2022-09-12T05:03:33;12.23;;;8.23;;
9310;SDS011;4694;52.464;13.480;2022-09-12T05:06:03;8.88;;;6.50;;
9310;SDS011;4694;52.464;13.480;2022-09-12T05:08:31;12.00;;;6.70;;
9310;SDS011;4694;52.464;13.480;2022-09-12T05:11:00;10.30;;;6.90;;
9310;SDS011;4694;52.464;13.480;2022-09-12T05:13:29;12.20;;;7.32;;
9310;SDS011;4694;52.464;13.480;2022-09-12T05:15:57;13.48;;;7.75;;
9310;SDS011;4694;52.464;13.480;2022-09-12T05:18:26;10.38;;;7.93;;
9310;SDS011;4694;52.464;13.480;2022-09-12T05:20:53;10.68;;;7.10;;
9310;SDS011;4694;52.464;13.480;2022-09-12T05:23:20;10.05;;;7.25;;
9310;SDS011;4694;52.464;13.480;2022-09-12T05:25:48;13.95;;;8.10;;
9310;SDS011;4694;52.464;13.480;2022-09-12T05:28:15;18.38;;;10.77;;
9310;SDS011;4694;52.464;13.480;2022-09-12T05:30:42;13.93;;;8.77;;
9310;SDS011;4694;52.464;13.480;2022-09-12T05:33:08;17.10;;;7.10;;
9310;SDS011;4694;52.464;13.480;2022-09-12T05:35:36;10.70;;;6.68;;
9310;SDS011;4694;52.464;13.480;2022-09-12T05:38:04;13.23;;;7.85;;
9310;SDS011;4694;52.464;13.480;2022-09-12T05:40:31;12.52;;;7.68;;
9310;SDS011;4694;52.464;13.480;2022-09-12T05:42:58;16.48;;;10.38;;
9310;SDS011;4694;52.464;13.480;2022-09-12T05:45:25;10.85;;;7.15;;
9310;SDS011;4694;52.464;13.480;2022-09-12T05:47:52;12.35;;;7.78;;
9310;SDS011;4694;52.464;13.480;2022-09-12T05:50:19;12.18;;;7.63;;
9310;SDS011;4694;52.464;13.480;2022-09-12T05:52:47;14.18;;;7.90;;
9310;SDS011;4694;52.464;13.480;2022-09-12T05:55:14;14.30;;;8.05;;
9310;SDS011;4694;52.464;13.480;2022-09-12T05:57:42;11.98;;;8.07;;
9310;SDS011;4694;52.464;13.480;2022-09-12T06:00:11;11.68;;;6.13;;
9310;SDS011;4694;52.464;13.480;2022-09-12T06:02:38;10.85;;;7.55;;
9310;SDS011;4694;52.464;13.480;2022-09-12T06:05:05;11.40;;;8.60;;
9310;SDS011;4694;52.464;13.480;2022-09-12T06:07:32;11.90;;;7.15;;
9310;SDS011;4694;52.464;13.480;2022-09-12T06:10:01;10.60;;;7.00;;
9310;SDS011;4694;52.464;13.480;2022-09-12T06:12:29;10.48;;;6.88;;
9310;SDS011;4694;52.464;13.480;2022-09-12T06:14:56;8.23;;;5.13;;
9310;SDS011;4694;52.464;13.480;2022-09-12T06:17:22;7.32;;;5.25;;
9310;SDS011;4694;52.464;13.480;2022-09-12T06:19:49;9.18;;;5.13;;
9310;SDS011;4694;52.464;13.480;2022-09-12T06:22:16;8.32;;;5.05;;
9310;SDS011;4694;52.464;13.480;2022-09-12T06:24:43;9.68;;;6.20;;
9310;SDS011;4694;52.464;13.480;2022-09-12T06:27:11;6.43;;;4.43;;
9310;SDS011;4694;52.464;13.480;2022-09-12T06:29:37;9.75;;;6.45;;
9310;SDS011;4694;52.464;13.480;2022-09-12T06:32:04;9.45;;;5.50;;
9310;SDS011;4694;52.464;13.480;2022-09-12T06:34:31;9.05;;;5.22;;
9310;SDS011;4694;52.464;13.480;2022-09-12T06:36:58;6.47;;;4.65;;
9310;SDS011;4694;52.464;13.480;2022-09-12T06:39:24;7.82;;;5.88;;
9310;SDS011;4694;52.464;13.480;2022-09-12T06:41:51;9.98;;;5.90;;
9310;SDS011;4694;52.464;13.480;2022-09-12T06:44:20;10.55;;;5.28;;
9310;SDS011;4694;52.464;13.480;2022-09-12T06:46:47;9.63;;;5.97;;
9310;SDS011;4694;52.464;13.480;2022-09-12T06:49:15;8.52;;;5.90;;
9310;SDS011;4694;52.464;13.480;2022-09-12T06:51:42;16.73;;;7.95;;
9310;SDS011;4694;52.464;13.480;2022-09-12T06:54:11;11.82;;;6.63;;
9310;SDS011;4694;52.464;13.480;2022-09-12T06:56:38;13.02;;;5.75;;
9310;SDS011;4694;52.464;13.480;2022-09-12T06:59:04;10.85;;;6.15;;
9310;SDS011;4694;52.464;13.480;2022-09-12T07:01:32;12.90;;;7.05;;
9310;SDS011;4694;52.464;13.480;2022-09-12T07:04:00;8.88;;;5.93;;
9310;SDS011;4694;52.464;13.480;2022-09-12T07:06:29;8.90;;;5.97;;
9310;SDS011;4694;52.464;13.480;2022-09-12T07:09:00;7.93;;;5.40;;
9310;SDS011;4694;52.464;13.480;2022-09-12T07:11:30;7.77;;;5.33;;
9310;SDS011;4694;52.464;13.480;2022-09-12T07:13:58;8.40;;;4.90;;
9310;SDS011;4694;52.464;13.480;2022-09-12T07:16:25;6.78;;;5.03;;
9310;SDS011;4694;52.464;13.480;2022-09-12T07:18:54;7.32;;;5.05;;
9310;SDS011;4694;52.464;13.480;2022-09-12T07:21:22;7.78;;;6.18;;
9310;SDS011;4694;52.464;13.480;2022-09-12T07:23:49;5.88;;;4.93;;
9310;SDS011;4694;52.464;13.480;2022-09-12T07:26:19;9.15;;;4.75;;
9310;SDS011;4694;52.464;13.480;2022-09-12T07:28:49;6.45;;;4.45;;
9310;SDS011;4694;52.464;13.480;2022-09-12T07:31:17;6.03;;;4.18;;
9310;SDS011;4694;52.464;13.480;2022-09-12T07:33:44;5.20;;;3.53;;
9310;SDS011;4694;52.464;13.480;2022-09-12T07:36:13;7.70;;;4.32;;
9310;SDS011;4694;52.464;13.480;2022-09-12T07:38:40;6.85;;;5.00;;
9310;SDS011;4694;52.464;13.480;2022-09-12T07:41:11;8.10;;;3.72;;
9310;SDS011;4694;52.464;13.480;2022-09-12T07:43:38;5.43;;;4.68;;
9310;SDS011;4694;52.464;13.480;2022-09-12T07:46:06;3.55;;;3.15;;
9310;SDS011;4694;52.464;13.480;2022-09-12T07:48:33;2.88;;;2.65;;
9310;SDS011;4694;52.464;13.480;2022-09-12T07:51:00;3.97;;;3.40;;
9310;SDS011;4694;52.464;13.480;2022-09-12T07:53:31;3.53;;;2.38;;
9310;SDS011;4694;52.464;13.480;2022-09-12T07:55:59;3.95;;;2.72;;
9310;SDS011;4694;52.464;13.480;2022-09-12T07:58:27;4.90;;;3.25;;
9310;SDS011;4694;52.464;13.480;2022-09-12T08:00:54;5.40;;;3.55;;
9310;SDS011;4694;52.464;13.480;2022-09-12T08:03:27;6.38;;;3.65;;
9310;SDS011;4694;52.464;13.480;2022-09-12T08:05:53;4.20;;;2.45;;
9310;SDS011;4694;52.464;13.480;2022-09-12T08:08:20;4.70;;;2.58;;
9310;SDS011;4694;52.464;13.480;2022-09-12T08:10:48;3.90;;;2.80;;
9310;SDS011;4694;52.464;13.480;2022-09-12T08:13:14;2.38;;;2.08;;
9310;SDS011;4694;52.464;13.480;2022-09-12T08:15:42;4.20;;;1.95;;
9310;SDS011;4694;52.464;13.480;2022-09-12T08:18:09;2.78;;;1.80;;
9310;SDS011;4694;52.464;13.480;2022-09-12T08:20:36;3.90;;;2.00;;
9310;SDS011;4694;52.464;13.480;2022-09-12T08:23:03;3.63;;;2.58;;
9310;SDS011;4694;52.464;13.480;2022-09-12T08:25:30;6.13;;;2.97;;
9310;SDS011;4694;52.464;13.480;2022-09-12T08:27:59;3.17;;;2.88;;
9310;SDS011;4694;52.464;13.480;2022-09-12T08:30:26;5.55;;;4.40;;
9310;SDS011;4694;52.464;13.480;2022-09-12T08:32:53;5.60;;;2.50;;
9310;SDS011;4694;52.464;13.480;2022-09-12T08:35:20;4.45;;;2.42;;
9310;SDS011;4694;52.464;13.480;2022-09-12T08:37:47;3.40;;;2.40;;
9310;SDS011;4694;52.464;13.480;2022-09-12T08:40:15;4.95;;;2.45;;
9310;SDS011;4694;52.464;13.480;2022-09-12T08:42:46;3.90;;;2.63;;
9310;SDS011;4694;52.464;13.480;2022-09-12T08:45:20;2.67;;;1.83;;
9310;SDS011;4694;52.464;13.480;2022-09-12T08:47:50;1.83;;;1.70;;
9310;SDS011;4694;52.464;13.480;2022-09-12T08:50:17;2.58;;;1.50;;
9310;SDS011;4694;52.464;13.480;2022-09-12T08:52:48;2.55;;;1.92;;
9310;SDS011;4694;52.464;13.480;2022-09-12T08:55:25;3.75;;;1.30;;
9310;SDS011;4694;52.464;13.480;2022-09-12T08:57:56;1.60;;;1.38;;
9310;SDS011;4694;52.464;13.480;2022-09-12T09:00:26;3.33;;;1.20;;
9310;SDS011;4694;52.464;13.480;2022-09-12T09:03:09;3.05;;;1.17;;
9310;SDS011;4694;52.464;13.480;2022-09-12T09:06:02;2.45;;;1.17;;
9310;SDS011;4694;52.464;13.480;2022-09-12T09:08:39;5.25;;;2.22;;
9310;SDS011;4694;52.464;13.480;2022-09-12T09:11:16;2.03;;;1.83;;
9310;SDS011;4694;52.464;13.480;2022-09-12T09:13:55;3.50;;;1.48;;
9310;SDS011;4694;52.464;13.480;2022-09-12T09:16:49;3.72;;;1.63;;
9310;SDS011;4694;52.464;13.480;2022-09-12T09:19:19;2.67;;;1.50;;
9310;SDS011;4694;52.464;13.480;2022-09-12T09:21:49;4.20;;;2.03;;
9310;SDS011;4694;52.464;13.480;2022-09-12T09:24:20;8.00;;;3.15;;
9310;SDS011;4694;52.464;13.480;2022-09-12T09:26:53;4.25;;;2.30;;
9310;SDS011;4694;52.464;13.480;2022-09-12T09:29:22;5.95;;;2.03;;
9310;SDS011;4694;52.464;13.480;2022-09-12T09:31:52;3.25;;;2.30;;
9310;SDS011;4694;52.464;13.480;2022-09-12T09:34:21;5.20;;;1.50;;
9310;SDS011;4694;52.464;13.480;2022-09-12T09:36:48;2.78;;;1.33;;
9310;SDS011;4694;52.464;13.480;2022-09-12T09:42:10;1.02;;;0.60;;
9310;SDS011;4694;52.464;13.480;2022-09-12T09:44:43;2.25;;;1.30;;
9310;SDS011;4694;52.464;13.480;2022-09-12T09:47:14;1.98;;;0.80;;
9310;SDS011;4694;52.464;13.480;2022-09-12T09:52:09;1.55;;;1.25;;
9310;SDS011;4694;52.464;13.480;2022-09-12T09:54:40;1.48;;;1.38;;
9310;SDS011;4694;52.464;13.480;2022-09-12T10:00:18;1.85;;;1.00;;
9310;SDS011;4694;52.464;13.480;2022-09-12T10:02:57;1.35;;;0.80;;
9310;SDS011;4694;52.464;13.480;2022-09-12T10:05:27;5.25;;;1.38;;
9310;SDS011;4694;52.464;13.480;2022-09-12T10:07:55;1.95;;;1.20;;
9310;SDS011;4694;52.464;13.480;2022-09-12T10:10:24;1.55;;;0.88;;
9310;SDS011;4694;52.464;13.480;2022-09-12T10:12:51;1.58;;;1.05;;
9310;SDS011;4694;52.464;13.480;2022-09-12T10:15:33;1.38;;;1.00;;
9310;SDS011;4694;52.464;13.480;2022-09-12T10:18:01;1.83;;;1.25;;
9310;SDS011;4694;52.464;13.480;2022-09-12T10:22:57;1.55;;;0.90;;
9310;SDS011;4694;52.464;13.480;2022-09-12T10:25:25;2.05;;;1.17;;
9310;SDS011;4694;52.464;13.480;2022-09-12T10:27:53;1.42;;;0.80;;
9310;SDS011;4694;52.464;13.480;2022-09-12T10:32:52;1.77;;;0.75;;
9310;SDS011;4694;52.464;13.480;2022-09-12T10:35:21;2.55;;;1.00;;
9310;SDS011;4694;52.464;13.480;2022-09-12T10:37:50;1.33;;;0.73;;
9310;SDS011;4694;52.464;13.480;2022-09-12T10:42:49;1.52;;;0.80;;
9310;SDS011;4694;52.464;13.480;2022-09-12T10:45:17;1.13;;;0.73;;
9310;SDS011;4694;52.464;13.480;2022-09-12T10:47:46;1.13;;;0.82;;
9310;SDS011;4694;52.464;13.480;2022-09-12T10:50:24;1.15;;;0.80;;
9310;SDS011;4694;52.464;13.480;2022-09-12T10:52:53;2.25;;;0.90;;
9310;SDS011;4694;52.464;13.480;2022-09-12T10:55:21;0.60;;;0.50;;
9310;SDS011;4694;52.464;13.480;2022-09-12T10:57:58;2.88;;;1.00;;
9310;SDS011;4694;52.464;13.480;2022-09-12T11:00:34;3.60;;;0.90;;
9310;SDS011;4694;52.464;13.480;2022-09-12T11:03:05;2.63;;;1.00;;
9310;SDS011;4694;52.464;13.480;2022-09-12T11:05:46;1.30;;;0.70;;
9310;SDS011;4694;52.464;13.480;2022-09-12T11:08:21;3.28;;;0.77;;
9310;SDS011;4694;52.464;13.480;2022-09-12T11:11:01;1.50;;;1.00;;
9310;SDS011;4694;52.464;13.480;2022-09-12T11:13:43;1.20;;;1.10;;
9310;SDS011;4694;52.464;13.480;2022-09-12T11:16:17;1.23;;;0.90;;
9310;SDS011;4694;52.464;13.480;2022-09-12T11:18:54;1.30;;;1.20;;
9310;SDS011;4694;52.464;13.480;2022-09-12T11:21:41;1.05;;;0.65;;
9310;SDS011;4694;52.464;13.480;2022-09-12T11:24:21;5.38;;;0.85;;
9310;SDS011;4694;52.464;13.480;2022-09-12T11:27:03;0.70;;;0.70;;
9310;SDS011;4694;52.464;13.480;2022-09-12T11:29:40;2.42;;;0.95;;
9310;SDS011;4694;52.464;13.480;2022-09-12T11:32:26;1.42;;;0.73;;
9310;SDS011;4694;52.464;13.480;2022-09-12T11:35:06;2.83;;;1.25;;
9310;SDS011;4694;52.464;13.480;2022-09-12T11:37:49;3.60;;;0.75;;
9310;SDS011;4694;52.464;13.480;2022-09-12T11:40:39;4.20;;;0.73;;
9310;SDS011;4694;52.464;13.480;2022-09-12T11:43:12;2.22;;;0.90;;
9310;SDS011;4694;52.464;13.480;2022-09-12T11:45:47;2.97;;;0.70;;
9310;SDS011;4694;52.464;13.480;2022-09-12T11:48:15;4.18;;;0.60;;
9310;SDS011;4694;52.464;13.480;2022-09-12T11:50:47;3.08;;;0.75;;
9310;SDS011;4694;52.464;13.480;2022-09-12T11:53:16;2.08;;;0.75;;
9310;SDS011;4694;52.464;13.480;2022-09-12T11:55:49;0.98;;;0.70;;
9310;SDS011;4694;52.464;13.480;2022-09-12T11:58:22;1.70;;;0.75;;
9310;SDS011;4694;52.464;13.480;2022-09-12T12:00:53;3.03;;;0.77;;
9310;SDS011;4694;52.464;13.480;2022-09-12T12:03:25;3.67;;;1.42;;
9310;SDS011;4694;52.464;13.480;2022-09-12T12:05:58;1.23;;;0.60;;
9310;SDS011;4694;52.464;13.480;2022-09-12T12:08:31;1.73;;;0.70;;
9310;SDS011;4694;52.464;13.480;2022-09-12T12:11:04;2.25;;;0.60;;
9310;SDS011;4694;52.464;13.480;2022-09-12T12:13:33;2.50;;;0.70;;
9310;SDS011;4694;52.464;13.480;2022-09-12T12:18:31;0.60;;;0.50;;
9310;SDS011;4694;52.464;13.480;2022-09-12T12:21:15;0.93;;;0.70;;
9310;SDS011;4694;52.464;13.480;2022-09-12T12:26:54;3.40;;;0.70;;
9310;SDS011;4694;52.464;13.480;2022-09-12T12:32:18;0.60;;;0.50;;
9310;SDS011;4694;52.464;13.480;2022-09-12T12:34:47;0.70;;;0.50;;
9310;SDS011;4694;52.464;13.480;2022-09-12T12:40:21;6.25;;;0.80;;
9310;SDS011;4694;52.464;13.480;2022-09-12T12:46:00;1.92;;;0.47;;
9310;SDS011;4694;52.464;13.480;2022-09-12T12:48:32;1.75;;;1.42;;
9310;SDS011;4694;52.464;13.480;2022-09-12T12:51:24;3.55;;;0.60;;
9310;SDS011;4694;52.464;13.480;2022-09-12T12:53:58;0.95;;;0.60;;
9310;SDS011;4694;52.464;13.480;2022-09-12T12:56:28;3.35;;;0.80;;
9310;SDS011;4694;52.464;13.480;2022-09-12T12:59:00;0.95;;;0.65;;
9310;SDS011;4694;52.464;13.480;2022-09-12T13:01:30;0.73;;;0.60;;
9310;SDS011;4694;52.464;13.480;2022-09-12T13:04:04;1.23;;;1.10;;
9310;SDS011;4694;52.464;13.480;2022-09-12T13:06:39;1.67;;;1.58;;
9310;SDS011;4694;52.464;13.480;2022-09-12T13:09:07;1.40;;;0.60;;
9310;SDS011;4694;52.464;13.480;2022-09-12T13:11:46;2.03;;;0.60;;
9310;SDS011;4694;52.464;13.480;2022-09-12T13:14:32;3.47;;;1.25;;
9310;SDS011;4694;52.464;13.480;2022-09-12T13:17:15;0.73;;;0.70;;
9310;SDS011;4694;52.464;13.480;2022-09-12T13:19:48;1.60;;;0.60;;
9310;SDS011;4694;52.464;13.480;2022-09-12T13:22:16;2.05;;;1.02;;
9310;SDS011;4694;52.464;13.480;2022-09-12T13:24:49;1.08;;;0.80;;
9310;SDS011;4694;52.464;13.480;2022-09-12T13:27:19;0.90;;;0.40;;
9310;SDS011;4694;52.464;13.480;2022-09-12T13:29:47;0.70;;;0.40;;
9310;SDS011;4694;52.464;13.480;2022-09-12T13:32:14;1.58;;;0.50;;
9310;SDS011;4694;52.464;13.480;2022-09-12T13:34:47;2.17;;;0.40;;
9310;SDS011;4694;52.464;13.480;2022-09-12T13:37:29;1.67;;;0.40;;
9310;SDS011;4694;52.464;13.480;2022-09-12T13:40:14;1.77;;;1.30;;
9310;SDS011;4694;52.464;13.480;2022-09-12T13:42:52;1.38;;;0.68;;
9310;SDS011;4694;52.464;13.480;2022-09-12T13:45:34;1.65;;;0.35;;
9310;SDS011;4694;52.464;13.480;2022-09-12T13:48:03;0.82;;;0.65;;
9310;SDS011;4694;52.464;13.480;2022-09-12T13:50:36;3.75;;;0.40;;
9310;SDS011;4694;52.464;13.480;2022-09-12T13:53:10;1.20;;;0.85;;
9310;SDS011;4694;52.464;13.480;2022-09-12T13:55:41;0.85;;;0.35;;
9310;SDS011;4694;52.464;13.480;2022-09-12T13:58:20;0.93;;;0.60;;
9310;SDS011;4694;52.464;13.480;2022-09-12T14:01:03;0.98;;;0.57;;
9310;SDS011;4694;52.464;13.480;2022-09-12T14:03:32;1.38;;;0.68;;
9310;SDS011;4694;52.464;13.480;2022-09-12T14:06:21;0.60;;;0.60;;
9310;SDS011;4694;52.464;13.480;2022-09-12T14:11:22;1.02;;;0.70;;
9310;SDS011;4694;52.464;13.480;2022-09-12T14:13:52;1.42;;;0.60;;
9310;SDS011;4694;52.464;13.480;2022-09-12T14:16:20;0.77;;;0.65;;
9310;SDS011;4694;52.464;13.480;2022-09-12T14:21:19;0.77;;;0.50;;
9310;SDS011;4694;52.464;13.480;2022-09-12T14:23:57;0.50;;;0.30;;
9310;SDS011;4694;52.464;13.480;2022-09-12T14:26:28;2.35;;;0.68;;
9310;SDS011;4694;52.464;13.480;2022-09-12T14:28:59;0.55;;;0.47;;
9310;SDS011;4694;52.464;13.480;2022-09-12T14:31:30;2.45;;;0.60;;
9310;SDS011;4694;52.464;13.480;2022-09-12T14:34:07;1.00;;;0.60;;
9310;SDS011;4694;52.464;13.480;2022-09-12T14:36:38;0.93;;;0.50;;
9310;SDS011;4694;52.464;13.480;2022-09-12T14:39:18;1.48;;;0.82;;
9310;SDS011;4694;52.464;13.480;2022-09-12T14:41:48;0.90;;;0.43;;
9310;SDS011;4694;52.464;13.480;2022-09-12T14:44:18;1.95;;;0.50;;
9310;SDS011;4694;52.464;13.480;2022-09-12T14:46:49;0.77;;;0.50;;
9310;SDS011;4694;52.464;13.480;2022-09-12T14:49:17;0.77;;;0.55;;
9310;SDS011;4694;52.464;13.480;2022-09-12T14:54:34;1.58;;;0.70;;
9310;SDS011;4694;52.464;13.480;2022-09-12T14:57:27;0.60;;;0.55;;
9310;SDS011;4694;52.464;13.480;2022-09-12T15:00:06;1.38;;;0.82;;
9310;SDS011;4694;52.464;13.480;2022-09-12T15:02:46;1.05;;;0.80;;
9310;SDS011;4694;52.464;13.480;2022-09-12T15:05:14;1.40;;;0.60;;
9310;SDS011;4694;52.464;13.480;2022-09-12T15:07:53;3.35;;;1.20;;
9310;SDS011;4694;52.464;13.480;2022-09-12T15:10:22;2.33;;;0.60;;
9310;SDS011;4694;52.464;13.480;2022-09-12T15:15:49;1.15;;;0.60;;
9310;SDS011;4694;52.464;13.480;2022-09-12T15:18:17;0.98;;;0.70;;
9310;SDS011;4694;52.464;13.480;2022-09-12T15:20:45;0.88;;;0.50;;
9310;SDS011;4694;52.464;13.480;2022-09-12T15:23:14;2.10;;;0.65;;
9310;SDS011;4694;52.464;13.480;2022-09-12T15:25:44;1.33;;;0.77;;
9310;SDS011;4694;52.464;13.480;2022-09-12T15:28:12;0.85;;;0.40;;
9310;SDS011;4694;52.464;13.480;2022-09-12T15:30:42;1.80;;;0.60;;
9310;SDS011;4694;52.464;13.480;2022-09-12T15:33:11;2.47;;;0.73;;
9310;SDS011;4694;52.464;13.480;2022-09-12T15:35:38;1.30;;;0.90;;
9310;SDS011;4694;52.464;13.480;2022-09-12T15:38:05;2.03;;;0.88;;
9310;SDS011;4694;52.464;13.480;2022-09-12T15:40:32;3.35;;;1.08;;
9310;SDS011;4694;52.464;13.480;2022-09-12T15:42:58;1.80;;;0.73;;
9310;SDS011;4694;52.464;13.480;2022-09-12T15:45:25;1.92;;;0.80;;
9310;SDS011;4694;52.464;13.480;2022-09-12T15:47:55;0.90;;;0.50;;
9310;SDS011;4694;52.464;13.480;2022-09-12T15:50:23;1.25;;;0.73;;
9310;SDS011;4694;52.464;13.480;2022-09-12T15:52:50;1.13;;;0.90;;
9310;SDS011;4694;52.464;13.480;2022-09-12T15:55:17;1.00;;;0.90;;
9310;SDS011;4694;52.464;13.480;2022-09-12T15:57:45;0.70;;;0.65;;
9310;SDS011;4694;52.464;13.480;2022-09-12T16:00:12;2.03;;;1.10;;
9310;SDS011;4694;52.464;13.480;2022-09-12T16:02:40;6.65;;;1.48;;
9310;SDS011;4694;52.464;13.480;2022-09-12T16:05:09;2.58;;;0.85;;
9310;SDS011;4694;52.464;13.480;2022-09-12T16:07:41;2.83;;;1.13;;